sensor_id;sensor_type;location;lat;lon;timestamp;pressure;altitude;pressure_sealevel;temperature;humidity
72409;BME280;60402;48.082;11.628;2023-12-04T00:01:31;95516.22;;;-10.28;100.00
72409;BME280;60402;48.082;11.628;2023-12-04T00:04:16;95511.22;;;-10.26;100.00
72409;BME280;60402;48.082;11.628;2023-12-04T00:07:02;95500.63;;;-10.28;100.00
72409;BME280;60402;48.082;11.628;2023-12-04T00:09:48;95532.25;;;-10.05;100.00
72409;BME280;60402;48.082;11.628;2023-12-04T00:12:33;95527.25;;;-10.02;100.00
72409;BME280;60402;48.082;11.628;2023-12-04T00:15:19;95525.34;;;-10.02;100.00
72409;BME280;60402;48.082;11.628;2023-12-04T00:18:05;95506.88;;;-10.27;100.00
72409;BME280;60402;48.082;11.628;2023-12-04T00:20:51;95519.25;;;-10.30;100.00
72409;BME280;60402;48.082;11.628;2023-12-04T00:23:37;95501.63;;;-10.46;100.00
72409;BME280;60402;48.082;11.628;2023-12-04T00:26:23;95497.03;;;-10.37;100.00
72409;BME280;60402;48.082;11.628;2023-12-04T00:29:08;95496.22;;;-10.38;100.00
72409;BME280;60402;48.082;11.628;2023-12-04T00:31:54;95475.28;;;-10.42;100.00
72409;BME280;60402;48.082;11.628;2023-12-04T00:34:42;95468.28;;;-10.35;100.00
72409;BME280;60402;48.082;11.628;2023-12-04T00:37:27;95501.66;;;-10.15;100.00
72409;BME280;60402;48.082;11.628;2023-12-04T00:40:13;95487.56;;;-10.31;100.00
72409;BME280;60402;48.082;11.628;2023-12-04T00:42:59;95470.03;;;-10.39;100.00
72409;BME280;60402;48.082;11.628;2023-12-04T00:45:44;95496.78;;;-10.18;100.00
72409;BME280;60402;48.082;11.628;2023-12-04T00:48:30;95488.28;;;-10.25;100.00
72409;BME280;60402;48.082;11.628;2023-12-04T00:51:16;95487.56;;;-10.31;100.00
72409;BME280;60402;48.082;11.628;2023-12-04T00:54:01;95491.63;;;-10.28;100.00
72409;BME280;60402;48.082;11.628;2023-12-04T00:56:47;95491.25;;;-10.36;100.00
72409;BME280;60402;48.082;11.628;2023-12-04T00:59:33;95482.19;;;-10.45;100.00
72409;BME280;60402;48.082;11.628;2023-12-04T01:02:18;95471.88;;;-10.48;100.00
72409;BME280;60402;48.082;11.628;2023-12-04T01:05:04;95489.88;;;-10.47;100.00
72409;BME280;60402;48.082;11.628;2023-12-04T01:07:50;95494.53;;;-10.47;100.00
72409;BME280;60402;48.082;11.628;2023-12-04T01:10:36;95488.09;;;-10.51;100.00
72409;BME280;60402;48.082;11.628;2023-12-04T01:13:22;95478.56;;;-10.54;100.00
72409;BME280;60402;48.082;11.628;2023-12-04T01:16:08;95462.09;;;-10.71;100.00
72409;BME280;60402;48.082;11.628;2023-12-04T01:18:54;95480.38;;;-10.49;100.00
72409;BME280;60402;48.082;11.628;2023-12-04T01:21:40;95464.91;;;-10.54;100.00
72409;BME280;60402;48.082;11.628;2023-12-04T01:24:26;95454.50;;;-10.52;100.00
72409;BME280;60402;48.082;11.628;2023-12-04T01:27:11;95471.44;;;-10.41;100.00
72409;BME280;60402;48.082;11.628;2023-12-04T01:29:58;95472.91;;;-10.35;100.00
72409;BME280;60402;48.082;11.628;2023-12-04T01:32:43;95433.78;;;-10.53;100.00
72409;BME280;60402;48.082;11.628;2023-12-04T01:35:29;95463.00;;;-10.22;100.00
72409;BME280;60402;48.082;11.628;2023-12-04T01:38:15;95458.72;;;-10.46;100.00
72409;BME280;60402;48.082;11.628;2023-12-04T01:41:00;95459.16;;;-10.52;100.00
72409;BME280;60402;48.082;11.628;2023-12-04T01:43:46;95456.44;;;-10.52;100.00
72409;BME280;60402;48.082;11.628;2023-12-04T01:46:32;95412.13;;;-10.72;100.00
72409;BME280;60402;48.082;11.628;2023-12-04T01:49:17;95438.31;;;-10.71;100.00
72409;BME280;60402;48.082;11.628;2023-12-04T01:52:04;95445.84;;;-10.76;100.00
72409;BME280;60402;48.082;11.628;2023-12-04T01:54:49;95446.81;;;-10.72;100.00
72409;BME280;60402;48.082;11.628;2023-12-04T01:57:36;95424.34;;;-10.69;100.00
72409;BME280;60402;48.082;11.628;2023-12-04T02:00:21;95411.63;;;-10.74;100.00
72409;BME280;60402;48.082;11.628;2023-12-04T02:03:08;95408.28;;;-10.71;100.00
72409;BME280;60402;48.082;11.628;2023-12-04T02:05:59;95396.13;;;-10.87;100.00
72409;BME280;60402;48.082;11.628;2023-12-04T02:08:46;95430.25;;;-10.76;100.00
72409;BME280;60402;48.082;11.628;2023-12-04T02:11:32;95400.88;;;-11.15;100.00
72409;BME280;60402;48.082;11.628;2023-12-04T02:14:18;95382.72;;;-11.20;100.00
72409;BME280;60402;48.082;11.628;2023-12-04T02:17:05;95390.84;;;-11.06;100.00
72409;BME280;60402;48.082;11.628;2023-12-04T02:19:52;95385.78;;;-10.99;100.00
72409;BME280;60402;48.082;11.628;2023-12-04T02:22:39;95369.75;;;-10.92;100.00
72409;BME280;60402;48.082;11.628;2023-12-04T02:25:24;95369.16;;;-10.89;100.00
72409;BME280;60402;48.082;11.628;2023-12-04T02:28:13;95387.19;;;-10.79;100.00
72409;BME280;60402;48.082;11.628;2023-12-04T02:31:01;95371.25;;;-10.86;100.00
72409;BME280;60402;48.082;11.628;2023-12-04T02:33:47;95386.06;;;-10.78;100.00
72409;BME280;60402;48.082;11.628;2023-12-04T02:36:35;95382.72;;;-10.97;100.00
72409;BME280;60402;48.082;11.628;2023-12-04T02:39:22;95358.72;;;-11.31;100.00
72409;BME280;60402;48.082;11.628;2023-12-04T02:42:08;95363.50;;;-11.15;100.00
72409;BME280;60402;48.082;11.628;2023-12-04T02:44:54;95344.09;;;-11.36;100.00
72409;BME280;60402;48.082;11.628;2023-12-04T02:47:39;95372.25;;;-11.04;100.00
72409;BME280;60402;48.082;11.628;2023-12-04T02:50:25;95373.72;;;-10.98;100.00
72409;BME280;60402;48.082;11.628;2023-12-04T02:53:10;95348.38;;;-11.21;100.00
72409;BME280;60402;48.082;11.628;2023-12-04T02:55:56;95342.22;;;-11.26;100.00
72409;BME280;60402;48.082;11.628;2023-12-04T02:58:42;95345.44;;;-11.24;100.00
72409;BME280;60402;48.082;11.628;2023-12-04T03:01:27;95336.97;;;-11.23;100.00
72409;BME280;60402;48.082;11.628;2023-12-04T03:04:13;95339.38;;;-11.21;100.00
72409;BME280;60402;48.082;11.628;2023-12-04T03:06:59;95337.31;;;-11.16;100.00
72409;BME280;60402;48.082;11.628;2023-12-04T03:09:44;95336.03;;;-11.18;100.00
72409;BME280;60402;48.082;11.628;2023-12-04T03:12:30;95293.88;;;-11.35;100.00
72409;BME280;60402;48.082;11.628;2023-12-04T03:15:15;95303.13;;;-11.22;100.00
72409;BME280;60402;48.082;11.628;2023-12-04T03:18:02;95285.81;;;-11.17;100.00
72409;BME280;60402;48.082;11.628;2023-12-04T03:20:47;95319.47;;;-10.99;100.00
72409;BME280;60402;48.082;11.628;2023-12-04T03:23:33;95316.28;;;-10.93;100.00
72409;BME280;60402;48.082;11.628;2023-12-04T03:26:19;95309.19;;;-11.02;100.00
72409;BME280;60402;48.082;11.628;2023-12-04T03:29:04;95316.63;;;-10.94;100.00
72409;BME280;60402;48.082;11.628;2023-12-04T03:31:50;95311.91;;;-11.02;100.00
72409;BME280;60402;48.082;11.628;2023-12-04T03:34:35;95289.84;;;-11.37;100.00
72409;BME280;60402;48.082;11.628;2023-12-04T03:37:21;95270.44;;;-11.58;100.00
72409;BME280;60402;48.082;11.628;2023-12-04T03:40:07;95288.59;;;-11.31;100.00
72409;BME280;60402;48.082;11.628;2023-12-04T03:42:53;95295.72;;;-11.44;100.00
72409;BME280;60402;48.082;11.628;2023-12-04T03:45:38;95301.31;;;-11.49;100.00
72409;BME280;60402;48.082;11.628;2023-12-04T03:48:24;95298.75;;;-11.68;100.00
72409;BME280;60402;48.082;11.628;2023-12-04T03:51:10;95290.59;;;-11.81;100.00
72409;BME280;60402;48.082;11.628;2023-12-04T03:53:55;95304.22;;;-11.81;100.00
72409;BME280;60402;48.082;11.628;2023-12-04T03:56:41;95297.38;;;-11.79;100.00
72409;BME280;60402;48.082;11.628;2023-12-04T03:59:27;95283.69;;;-11.88;100.00
72409;BME280;60402;48.082;11.628;2023-12-04T04:02:12;95264.06;;;-11.98;100.00
72409;BME280;60402;48.082;11.628;2023-12-04T04:04:58;95274.34;;;-11.73;100.00
72409;BME280;60402;48.082;11.628;2023-12-04T04:07:44;95263.44;;;-11.95;100.00
72409;BME280;60402;48.082;11.628;2023-12-04T04:10:30;95272.19;;;-11.84;100.00
72409;BME280;60402;48.082;11.628;2023-12-04T04:13:15;95271.31;;;-11.71;100.00
72409;BME280;60402;48.082;11.628;2023-12-04T04:16:01;95251.69;;;-11.82;100.00
72409;BME280;60402;48.082;11.628;2023-12-04T04:18:47;95263.69;;;-11.61;100.00
72409;BME280;60402;48.082;11.628;2023-12-04T04:21:32;95269.44;;;-11.62;100.00
72409;BME280;60402;48.082;11.628;2023-12-04T04:24:22;95270.38;;;-11.67;100.00
72409;BME280;60402;48.082;11.628;2023-12-04T04:27:08;95247.66;;;-11.84;100.00
72409;BME280;60402;48.082;11.628;2023-12-04T04:29:53;95247.00;;;-11.81;100.00
72409;BME280;60402;48.082;11.628;2023-12-04T04:32:39;95252.47;;;-12.04;100.00
72409;BME280;60402;48.082;11.628;2023-12-04T04:35:25;95235.28;;;-12.27;100.00
72409;BME280;60402;48.082;11.628;2023-12-04T04:38:10;95243.44;;;-12.27;100.00
72409;BME280;60402;48.082;11.628;2023-12-04T04:40:56;95252.31;;;-12.35;100.00
72409;BME280;60402;48.082;11.628;2023-12-04T04:43:42;95216.94;;;-12.35;100.00
72409;BME280;60402;48.082;11.628;2023-12-04T04:46:28;95243.91;;;-12.11;100.00
72409;BME280;60402;48.082;11.628;2023-12-04T04:49:13;95267.28;;;-11.96;100.00
72409;BME280;60402;48.082;11.628;2023-12-04T04:51:59;95253.31;;;-12.17;100.00
72409;BME280;60402;48.082;11.628;2023-12-04T04:54:45;95251.84;;;-12.01;100.00
72409;BME280;60402;48.082;11.628;2023-12-04T04:57:30;95243.22;;;-12.17;100.00
72409;BME280;60402;48.082;11.628;2023-12-04T05:00:17;95228.41;;;-12.24;100.00
72409;BME280;60402;48.082;11.628;2023-12-04T05:03:03;95250.03;;;-12.05;100.00
72409;BME280;60402;48.082;11.628;2023-12-04T05:05:48;95225.44;;;-12.14;100.00
72409;BME280;60402;48.082;11.628;2023-12-04T05:08:34;95228.75;;;-12.03;100.00
72409;BME280;60402;48.082;11.628;2023-12-04T05:11:20;95235.94;;;-12.07;100.00
72409;BME280;60402;48.082;11.628;2023-12-04T05:14:05;95224.47;;;-11.96;100.00
72409;BME280;60402;48.082;11.628;2023-12-04T05:16:51;95192.16;;;-12.11;100.00
72409;BME280;60402;48.082;11.628;2023-12-04T05:19:37;95192.22;;;-12.02;100.00
72409;BME280;60402;48.082;11.628;2023-12-04T05:22:22;95207.84;;;-11.94;100.00
72409;BME280;60402;48.082;11.628;2023-12-04T05:25:08;95190.91;;;-12.05;100.00
72409;BME280;60402;48.082;11.628;2023-12-04T05:27:53;95209.13;;;-11.92;100.00
72409;BME280;60402;48.082;11.628;2023-12-04T05:30:39;95213.66;;;-11.87;100.00
72409;BME280;60402;48.082;11.628;2023-12-04T05:33:25;95205.47;;;-11.87;100.00
72409;BME280;60402;48.082;11.628;2023-12-04T05:36:11;95197.31;;;-12.23;100.00
72409;BME280;60402;48.082;11.628;2023-12-04T05:38:56;95181.91;;;-12.28;100.00
72409;BME280;60402;48.082;11.628;2023-12-04T05:41:42;95192.41;;;-12.21;100.00
72409;BME280;60402;48.082;11.628;2023-12-04T05:44:28;95201.13;;;-12.11;100.00
72409;BME280;60402;48.082;11.628;2023-12-04T05:47:13;95203.38;;;-12.13;100.00
72409;BME280;60402;48.082;11.628;2023-12-04T05:50:00;95191.00;;;-11.96;100.00
72409;BME280;60402;48.082;11.628;2023-12-04T05:52:45;95197.66;;;-11.80;100.00
72409;BME280;60402;48.082;11.628;2023-12-04T05:55:31;95180.59;;;-11.94;100.00
72409;BME280;60402;48.082;11.628;2023-12-04T05:58:16;95194.50;;;-11.96;100.00
72409;BME280;60402;48.082;11.628;2023-12-04T06:01:03;95187.78;;;-11.98;100.00
72409;BME280;60402;48.082;11.628;2023-12-04T06:03:48;95191.78;;;-11.96;100.00
72409;BME280;60402;48.082;11.628;2023-12-04T06:06:34;95207.94;;;-11.77;100.00
72409;BME280;60402;48.082;11.628;2023-12-04T06:09:20;95172.84;;;-12.01;100.00
72409;BME280;60402;48.082;11.628;2023-12-04T06:12:06;95180.16;;;-11.88;100.00
72409;BME280;60402;48.082;11.628;2023-12-04T06:14:54;95157.38;;;-11.92;100.00
72409;BME280;60402;48.082;11.628;2023-12-04T06:17:39;95169.94;;;-11.82;100.00
72409;BME280;60402;48.082;11.628;2023-12-04T06:20:25;95182.06;;;-11.66;100.00
72409;BME280;60402;48.082;11.628;2023-12-04T06:23:11;95180.06;;;-11.74;100.00
72409;BME280;60402;48.082;11.628;2023-12-04T06:25:57;95183.53;;;-11.60;100.00
72409;BME280;60402;48.082;11.628;2023-12-04T06:28:44;95180.66;;;-11.54;100.00
72409;BME280;60402;48.082;11.628;2023-12-04T06:31:30;95164.13;;;-11.58;100.00
72409;BME280;60402;48.082;11.628;2023-12-04T06:34:16;95155.34;;;-11.55;100.00
72409;BME280;60402;48.082;11.628;2023-12-04T06:37:02;95171.00;;;-11.38;100.00
72409;BME280;60402;48.082;11.628;2023-12-04T06:39:49;95171.34;;;-11.31;100.00
72409;BME280;60402;48.082;11.628;2023-12-04T06:42:35;95152.00;;;-11.43;100.00
72409;BME280;60402;48.082;11.628;2023-12-04T06:45:21;95142.78;;;-11.34;100.00
72409;BME280;60402;48.082;11.628;2023-12-04T06:48:08;95126.28;;;-11.28;100.00
72409;BME280;60402;48.082;11.628;2023-12-04T06:50:54;95133.53;;;-11.15;100.00
72409;BME280;60402;48.082;11.628;2023-12-04T06:53:40;95129.97;;;-11.24;100.00
72409;BME280;60402;48.082;11.628;2023-12-04T06:56:25;95129.16;;;-11.25;100.00
72409;BME280;60402;48.082;11.628;2023-12-04T06:59:11;95123.09;;;-11.22;100.00
72409;BME280;60402;48.082;11.628;2023-12-04T07:01:57;95123.75;;;-11.16;100.00
72409;BME280;60402;48.082;11.628;2023-12-04T07:04:42;95151.69;;;-11.11;100.00
72409;BME280;60402;48.082;11.628;2023-12-04T07:07:28;95122.06;;;-11.35;100.00
72409;BME280;60402;48.082;11.628;2023-12-04T07:10:14;95145.47;;;-11.02;100.00
72409;BME280;60402;48.082;11.628;2023-12-04T07:13:00;95122.63;;;-11.15;100.00
72409;BME280;60402;48.082;11.628;2023-12-04T07:15:45;95070.94;;;-11.29;100.00
72409;BME280;60402;48.082;11.628;2023-12-04T07:18:31;95139.91;;;-10.80;100.00
72409;BME280;60402;48.082;11.628;2023-12-04T07:21:17;95119.66;;;-10.88;100.00
72409;BME280;60402;48.082;11.628;2023-12-04T07:24:03;95080.34;;;-10.78;100.00
72409;BME280;60402;48.082;11.628;2023-12-04T07:26:49;95116.69;;;-10.43;100.00
72409;BME280;60402;48.082;11.628;2023-12-04T07:29:35;95012.13;;;-10.87;100.00
72409;BME280;60402;48.082;11.628;2023-12-04T07:32:22;95084.09;;;-10.39;100.00
72409;BME280;60402;48.082;11.628;2023-12-04T07:35:08;95068.66;;;-10.44;100.00
72409;BME280;60402;48.082;11.628;2023-12-04T07:37:54;95092.06;;;-9.99;100.00
72409;BME280;60402;48.082;11.628;2023-12-04T07:40:40;95110.22;;;-9.86;100.00
72409;BME280;60402;48.082;11.628;2023-12-04T07:43:25;95068.97;;;-10.28;100.00
72409;BME280;60402;48.082;11.628;2023-12-04T07:46:12;95100.94;;;-10.20;100.00
72409;BME280;60402;48.082;11.628;2023-12-04T07:48:59;95051.94;;;-10.51;100.00
72409;BME280;60402;48.082;11.628;2023-12-04T07:51:45;95062.50;;;-10.15;100.00
72409;BME280;60402;48.082;11.628;2023-12-04T07:54:30;95082.25;;;-9.83;100.00
72409;BME280;60402;48.082;11.628;2023-12-04T07:57:16;95057.41;;;-9.61;100.00
72409;BME280;60402;48.082;11.628;2023-12-04T08:00:02;95068.72;;;-9.33;100.00
72409;BME280;60402;48.082;11.628;2023-12-04T08:02:48;95070.38;;;-9.40;100.00
72409;BME280;60402;48.082;11.628;2023-12-04T08:05:33;95085.66;;;-9.01;100.00
72409;BME280;60402;48.082;11.628;2023-12-04T08:08:19;95092.72;;;-8.70;100.00
72409;BME280;60402;48.082;11.628;2023-12-04T08:11:05;95093.22;;;-8.47;100.00
72409;BME280;60402;48.082;11.628;2023-12-04T08:13:51;95110.22;;;-8.12;100.00
72409;BME280;60402;48.082;11.628;2023-12-04T08:16:36;95126.03;;;-7.97;100.00
72409;BME280;60402;48.082;11.628;2023-12-04T08:19:22;95085.16;;;-8.23;100.00
72409;BME280;60402;48.082;11.628;2023-12-04T08:22:09;95099.56;;;-8.14;100.00
72409;BME280;60402;48.082;11.628;2023-12-04T08:24:54;95084.38;;;-7.90;100.00
72409;BME280;60402;48.082;11.628;2023-12-04T08:27:40;95078.44;;;-7.59;100.00
72409;BME280;60402;48.082;11.628;2023-12-04T08:30:25;95066.31;;;-7.58;100.00
72409;BME280;60402;48.082;11.628;2023-12-04T08:33:12;95062.41;;;-7.90;100.00
72409;BME280;60402;48.082;11.628;2023-12-04T08:35:58;95047.22;;;-8.21;100.00
72409;BME280;60402;48.082;11.628;2023-12-04T08:38:44;95030.34;;;-8.44;100.00
72409;BME280;60402;48.082;11.628;2023-12-04T08:41:29;95046.44;;;-8.63;100.00
72409;BME280;60402;48.082;11.628;2023-12-04T08:44:15;95081.06;;;-8.38;100.00
72409;BME280;60402;48.082;11.628;2023-12-04T08:47:00;95074.50;;;-8.04;100.00
72409;BME280;60402;48.082;11.628;2023-12-04T08:49:46;95079.84;;;-8.07;100.00
72409;BME280;60402;48.082;11.628;2023-12-04T08:52:32;95079.88;;;-7.74;100.00
72409;BME280;60402;48.082;11.628;2023-12-04T08:55:18;95076.25;;;-7.54;100.00
72409;BME280;60402;48.082;11.628;2023-12-04T08:58:04;95084.00;;;-7.23;100.00
72409;BME280;60402;48.082;11.628;2023-12-04T09:00:50;95060.69;;;-7.29;100.00
72409;BME280;60402;48.082;11.628;2023-12-04T09:03:35;95058.81;;;-7.37;100.00
72409;BME280;60402;48.082;11.628;2023-12-04T09:06:21;95061.34;;;-7.32;100.00
72409;BME280;60402;48.082;11.628;2023-12-04T09:09:07;95043.31;;;-6.96;100.00
72409;BME280;60402;48.082;11.628;2023-12-04T09:11:53;95067.06;;;-6.39;100.00
72409;BME280;60402;48.082;11.628;2023-12-04T09:14:38;95061.53;;;-6.27;100.00
72409;BME280;60402;48.082;11.628;2023-12-04T09:17:24;95050.78;;;-6.32;100.00
72409;BME280;60402;48.082;11.628;2023-12-04T09:20:10;95058.94;;;-5.79;99.14
72409;BME280;60402;48.082;11.628;2023-12-04T09:22:56;95047.81;;;-5.27;95.48
72409;BME280;60402;48.082;11.628;2023-12-04T09:25:42;95045.84;;;-4.79;93.85
72409;BME280;60402;48.082;11.628;2023-12-04T09:28:27;95037.97;;;-4.45;89.70
72409;BME280;60402;48.082;11.628;2023-12-04T09:31:13;95051.72;;;-4.65;89.70
72409;BME280;60402;48.082;11.628;2023-12-04T09:33:58;95023.34;;;-4.65;92.04
72409;BME280;60402;48.082;11.628;2023-12-04T09:36:44;95039.78;;;-4.69;93.50
72409;BME280;60402;48.082;11.628;2023-12-04T09:39:30;95062.09;;;-4.90;94.93
72409;BME280;60402;48.082;11.628;2023-12-04T09:42:16;95075.59;;;-4.37;93.34
72409;BME280;60402;48.082;11.628;2023-12-04T09:45:04;95069.44;;;-4.30;90.84
72409;BME280;60402;48.082;11.628;2023-12-04T09:47:54;95059.19;;;-4.81;93.48
72409;BME280;60402;48.082;11.628;2023-12-04T09:50:40;95073.91;;;-4.57;93.38
72409;BME280;60402;48.082;11.628;2023-12-04T09:53:26;95070.78;;;-4.40;93.93
72409;BME280;60402;48.082;11.628;2023-12-04T09:56:13;95058.63;;;-4.55;92.43
72409;BME280;60402;48.082;11.628;2023-12-04T09:59:01;95040.09;;;-4.39;90.60
72409;BME280;60402;48.082;11.628;2023-12-04T10:01:47;95039.34;;;-4.71;94.62
72409;BME280;60402;48.082;11.628;2023-12-04T10:04:34;95011.88;;;-4.83;94.92
72409;BME280;60402;48.082;11.628;2023-12-04T10:07:20;95028.16;;;-4.43;92.86
72409;BME280;60402;48.082;11.628;2023-12-04T10:10:06;95001.81;;;-4.59;94.05
72409;BME280;60402;48.082;11.628;2023-12-04T10:12:53;95033.19;;;-4.80;94.62
72409;BME280;60402;48.082;11.628;2023-12-04T10:15:50;95020.25;;;-4.44;93.18
72409;BME280;60402;48.082;11.628;2023-12-04T10:18:36;95024.41;;;-4.70;93.41
72409;BME280;60402;48.082;11.628;2023-12-04T10:21:22;94992.72;;;-4.60;93.31
72409;BME280;60402;48.082;11.628;2023-12-04T10:24:07;95002.22;;;-4.57;94.92
72409;BME280;60402;48.082;11.628;2023-12-04T10:26:54;95007.25;;;-4.08;91.91
72409;BME280;60402;48.082;11.628;2023-12-04T10:29:47;94987.13;;;-3.90;92.21
72409;BME280;60402;48.082;11.628;2023-12-04T10:32:39;94999.91;;;-3.81;92.95
72409;BME280;60402;48.082;11.628;2023-12-04T10:35:25;94962.94;;;-3.96;93.01
72409;BME280;60402;48.082;11.628;2023-12-04T10:38:10;94968.25;;;-3.88;92.81
72409;BME280;60402;48.082;11.628;2023-12-04T10:40:56;94971.56;;;-3.36;90.89
72409;BME280;60402;48.082;11.628;2023-12-04T10:43:47;94977.28;;;-3.25;90.99
72409;BME280;60402;48.082;11.628;2023-12-04T10:46:36;94971.69;;;-3.52;92.57
72409;BME280;60402;48.082;11.628;2023-12-04T10:49:25;94972.31;;;-3.16;91.52
72409;BME280;60402;48.082;11.628;2023-12-04T10:52:12;94958.63;;;-3.09;90.20
72409;BME280;60402;48.082;11.628;2023-12-04T10:54:58;94962.03;;;-3.16;91.52
72409;BME280;60402;48.082;11.628;2023-12-04T10:57:44;94944.19;;;-3.22;90.76
72409;BME280;60402;48.082;11.628;2023-12-04T11:00:44;94953.38;;;-3.60;92.49
72409;BME280;60402;48.082;11.628;2023-12-04T11:03:52;94952.22;;;-3.36;93.57
72409;BME280;60402;48.082;11.628;2023-12-04T11:06:39;94968.09;;;-3.33;93.07
72409;BME280;60402;48.082;11.628;2023-12-04T11:09:27;94941.56;;;-3.15;93.26
72409;BME280;60402;48.082;11.628;2023-12-04T11:12:18;94931.31;;;-3.37;93.29
72409;BME280;60402;48.082;11.628;2023-12-04T11:15:07;94935.38;;;-3.73;92.38
72409;BME280;60402;48.082;11.628;2023-12-04T11:17:59;94922.44;;;-4.12;94.65
72409;BME280;60402;48.082;11.628;2023-12-04T11:20:59;94912.84;;;-3.98;96.62
72409;BME280;60402;48.082;11.628;2023-12-04T11:23:49;94910.28;;;-3.88;95.61
72409;BME280;60402;48.082;11.628;2023-12-04T11:26:35;94907.91;;;-4.47;97.27
72409;BME280;60402;48.082;11.628;2023-12-04T11:29:22;94900.88;;;-4.64;99.44
72409;BME280;60402;48.082;11.628;2023-12-04T11:32:15;94887.50;;;-4.62;100.00
72409;BME280;60402;48.082;11.628;2023-12-04T11:35:12;94895.88;;;-4.39;100.00
72409;BME280;60402;48.082;11.628;2023-12-04T11:37:59;94898.13;;;-4.64;100.00
72409;BME280;60402;48.082;11.628;2023-12-04T11:40:48;94882.44;;;-4.41;100.00
72409;BME280;60402;48.082;11.628;2023-12-04T11:43:34;94877.31;;;-4.42;100.00
72409;BME280;60402;48.082;11.628;2023-12-04T11:46:21;94858.72;;;-4.65;100.00
72409;BME280;60402;48.082;11.628;2023-12-04T11:49:28;94879.13;;;-3.88;100.00
72409;BME280;60402;48.082;11.628;2023-12-04T11:52:16;94866.38;;;-3.73;99.95
72409;BME280;60402;48.082;11.628;2023-12-04T11:55:19;94877.75;;;-3.98;100.00
72409;BME280;60402;48.082;11.628;2023-12-04T11:58:09;94848.06;;;-4.47;100.00
72409;BME280;60402;48.082;11.628;2023-12-04T12:00:55;94884.91;;;-3.74;100.00
72409;BME280;60402;48.082;11.628;2023-12-04T12:03:41;94856.97;;;-3.69;99.54
72409;BME280;60402;48.082;11.628;2023-12-04T12:06:27;94871.03;;;-3.77;100.00
72409;BME280;60402;48.082;11.628;2023-12-04T12:09:13;94890.50;;;-3.70;100.00
72409;BME280;60402;48.082;11.628;2023-12-04T12:12:01;94894.34;;;-3.52;100.00
72409;BME280;60402;48.082;11.628;2023-12-04T12:14:46;94883.28;;;-3.29;100.00
72409;BME280;60402;48.082;11.628;2023-12-04T12:17:33;94897.69;;;-3.16;100.00
72409;BME280;60402;48.082;11.628;2023-12-04T12:20:19;94871.47;;;-3.26;100.00
72409;BME280;60402;48.082;11.628;2023-12-04T12:23:08;94892.97;;;-3.16;100.00
72409;BME280;60402;48.082;11.628;2023-12-04T12:25:54;94880.94;;;-3.27;100.00
72409;BME280;60402;48.082;11.628;2023-12-04T12:28:39;94887.66;;;-3.51;100.00
72409;BME280;60402;48.082;11.628;2023-12-04T12:31:25;94846.25;;;-3.24;100.00
72409;BME280;60402;48.082;11.628;2023-12-04T12:34:11;94865.59;;;-3.24;98.77
72409;BME280;60402;48.082;11.628;2023-12-04T12:36:56;94884.09;;;-3.28;100.00
72409;BME280;60402;48.082;11.628;2023-12-04T12:39:42;94861.41;;;-3.64;100.00
72409;BME280;60402;48.082;11.628;2023-12-04T12:42:28;94883.59;;;-3.80;100.00
72409;BME280;60402;48.082;11.628;2023-12-04T12:45:14;94884.78;;;-4.00;100.00
72409;BME280;60402;48.082;11.628;2023-12-04T12:48:00;94856.84;;;-3.99;100.00
72409;BME280;60402;48.082;11.628;2023-12-04T12:50:48;94855.31;;;-3.73;100.00
72409;BME280;60402;48.082;11.628;2023-12-04T12:53:34;94849.31;;;-3.29;100.00
72409;BME280;60402;48.082;11.628;2023-12-04T12:56:20;94880.53;;;-3.02;100.00
72409;BME280;60402;48.082;11.628;2023-12-04T12:59:06;94830.63;;;-3.13;100.00
72409;BME280;60402;48.082;11.628;2023-12-04T13:01:52;94865.84;;;-2.50;100.00
72409;BME280;60402;48.082;11.628;2023-12-04T13:04:40;94853.59;;;-2.52;100.00
72409;BME280;60402;48.082;11.628;2023-12-04T13:07:26;94826.28;;;-2.84;100.00
72409;BME280;60402;48.082;11.628;2023-12-04T13:10:12;94853.47;;;-2.63;100.00
72409;BME280;60402;48.082;11.628;2023-12-04T13:12:57;94819.59;;;-2.83;100.00
72409;BME280;60402;48.082;11.628;2023-12-04T13:15:45;94803.03;;;-2.49;100.00
72409;BME280;60402;48.082;11.628;2023-12-04T13:18:31;94803.63;;;-2.33;100.00
72409;BME280;60402;48.082;11.628;2023-12-04T13:21:19;94817.91;;;-2.61;100.00
72409;BME280;60402;48.082;11.628;2023-12-04T13:24:06;94782.53;;;-3.09;100.00
72409;BME280;60402;48.082;11.628;2023-12-04T13:26:54;94802.03;;;-2.98;100.00
72409;BME280;60402;48.082;11.628;2023-12-04T13:29:39;94738.00;;;-3.30;100.00
72409;BME280;60402;48.082;11.628;2023-12-04T13:32:25;94728.75;;;-3.15;100.00
72409;BME280;60402;48.082;11.628;2023-12-04T13:35:11;94762.25;;;-3.20;100.00
72409;BME280;60402;48.082;11.628;2023-12-04T13:37:57;94766.78;;;-3.04;100.00
72409;BME280;60402;48.082;11.628;2023-12-04T13:40:44;94764.31;;;-3.13;100.00
72409;BME280;60402;48.082;11.628;2023-12-04T13:43:44;94748.59;;;-3.36;100.00
72409;BME280;60402;48.082;11.628;2023-12-04T13:46:40;94750.09;;;-3.42;100.00
72409;BME280;60402;48.082;11.628;2023-12-04T13:49:26;94768.34;;;-2.77;100.00
72409;BME280;60402;48.082;11.628;2023-12-04T13:52:11;94732.22;;;-3.21;100.00
72409;BME280;60402;48.082;11.628;2023-12-04T13:54:57;94735.88;;;-3.14;100.00
72409;BME280;60402;48.082;11.628;2023-12-04T13:57:43;94756.16;;;-3.02;100.00
72409;BME280;60402;48.082;11.628;2023-12-04T14:00:41;94751.22;;;-3.16;100.00
72409;BME280;60402;48.082;11.628;2023-12-04T14:03:29;94755.75;;;-3.04;100.00
72409;BME280;60402;48.082;11.628;2023-12-04T14:06:16;94726.59;;;-3.28;100.00
72409;BME280;60402;48.082;11.628;2023-12-04T14:09:01;94740.41;;;-3.28;100.00
72409;BME280;60402;48.082;11.628;2023-12-04T14:11:49;94731.56;;;-3.41;100.00
72409;BME280;60402;48.082;11.628;2023-12-04T14:14:35;94698.22;;;-3.55;100.00